Melvin, Kentucky
Current Conditions -  °F | °C
As of 6:55 PM on Sunday 21 Dec 2014 (Local Time) from KPBX Reporting Station
Clear Clear  
Wind Chill: 33°   Ceiling: Unl
Heat Index: 38°   Visibility: 10mi
Dew Point: 27°   Wind: 7mph
Humidity: 66%   Direction: 10°N
Pressure: 30.13"   Gusts: NA
Location:  37.35°N, 82.69°W
Report Text: KPBX 212355Z AUTO 01006KT 10SM CLR 03/M03 A3013 RMK AO2 T00331026 10065 20031
Loading
Personal Weather Stations






























Interactive Weather Map New forecast layout! Learn more

10-Day Weather Forecast

Advertisements
Track Severe Weather on mobile